createdAt,value
2018-04-14T00:01:33.283Z,14.00
2018-04-14T00:04:02.485Z,13.20
2018-04-14T00:06:31.451Z,14.10
2018-04-14T00:09:04.069Z,15.27
2018-04-14T00:11:32.686Z,14.40
2018-04-14T00:14:02.735Z,16.60
2018-04-14T00:16:31.284Z,14.17
2018-04-14T00:19:03.522Z,14.70
2018-04-14T00:21:32.499Z,14.50
2018-04-14T00:24:08.400Z,15.60
2018-04-14T00:26:40.455Z,16.33
2018-04-14T00:29:10.636Z,15.90
2018-04-14T00:33:09.347Z,14.47
2018-04-14T00:35:39.844Z,16.20
2018-04-14T00:38:09.283Z,15.90
2018-04-14T00:40:38.779Z,16.77
2018-04-14T00:43:19.687Z,14.33
2018-04-14T00:45:49.073Z,15.83
2018-04-14T00:48:18.855Z,14.00
2018-04-14T00:50:54.700Z,14.53
2018-04-14T00:53:53.256Z,13.97
2018-04-14T00:56:36.170Z,15.70
2018-04-14T00:59:07.242Z,14.53
2018-04-14T01:01:38.500Z,13.67
2018-04-14T01:04:09.105Z,13.40
2018-04-14T01:06:38.578Z,13.90
2018-04-14T01:09:09.443Z,13.33
2018-04-14T01:11:39.150Z,14.13
2018-04-14T01:14:09.197Z,12.83
2018-04-14T01:16:40.160Z,13.80
2018-04-14T01:19:15.750Z,13.20
2018-04-14T01:21:45.294Z,13.30
2018-04-14T01:24:21.402Z,13.00
2018-04-14T01:27:03.747Z,13.57
2018-04-14T01:29:34.019Z,12.77
2018-04-14T01:32:03.874Z,12.57
2018-04-14T01:34:38.621Z,13.33
2018-04-14T01:37:08.292Z,13.97
2018-04-14T01:39:36.934Z,13.80
2018-04-14T01:42:06.519Z,13.70
2018-04-14T01:44:35.518Z,13.90
2018-04-14T01:47:09.672Z,13.37
2018-04-14T01:49:38.352Z,14.10
2018-04-14T01:52:11.346Z,12.90
2018-04-14T01:54:39.933Z,14.70
2018-04-14T01:57:08.495Z,14.43
2018-04-14T01:59:37.248Z,12.73
2018-04-14T02:02:10.422Z,15.30
2018-04-14T02:04:39.682Z,14.57
2018-04-14T02:07:09.817Z,14.10
2018-04-14T02:09:40.255Z,13.13
2018-04-14T02:12:09.178Z,14.90
2018-04-14T02:14:37.818Z,15.17
2018-04-14T02:17:07.007Z,15.00
2018-04-14T02:19:35.503Z,13.30
2018-04-14T02:22:05.457Z,13.90
2018-04-14T02:24:35.083Z,15.90
2018-04-14T02:27:07.206Z,16.27
2018-04-14T02:29:35.821Z,13.83
2018-04-14T02:32:06.901Z,15.40
2018-04-14T02:34:36.015Z,15.43
2018-04-14T02:37:05.151Z,14.53
2018-04-14T02:39:34.064Z,16.57
2018-04-14T02:42:05.452Z,13.90
2018-04-14T02:44:33.972Z,14.27
2018-04-14T02:47:12.863Z,16.00
2018-04-14T02:49:41.672Z,14.87
2018-04-14T02:52:10.615Z,15.97
2018-04-14T02:54:39.169Z,16.37
2018-04-14T02:57:22.666Z,13.73
2018-04-14T02:59:51.955Z,14.80
2018-04-14T03:02:22.190Z,14.73
2018-04-14T03:04:52.734Z,14.37
2018-04-14T03:07:21.707Z,14.40
2018-04-14T03:09:50.234Z,13.67
2018-04-14T03:12:18.813Z,13.70
2018-04-14T03:14:48.092Z,14.33
2018-04-14T03:17:16.810Z,14.00
2018-04-14T03:19:48.099Z,14.60
2018-04-14T03:22:17.277Z,14.63
2018-04-14T03:24:46.619Z,16.10
2018-04-14T03:27:26.228Z,16.33
2018-04-14T03:29:56.274Z,16.30
2018-04-14T03:32:26.060Z,17.10
2018-04-14T03:34:54.998Z,17.13
2018-04-14T03:37:35.158Z,16.80
2018-04-14T03:40:09.560Z,15.97
2018-04-14T03:42:38.167Z,17.10
2018-04-14T03:45:07.230Z,18.00
2018-04-14T03:47:36.091Z,17.53
2018-04-14T03:50:07.460Z,18.00
2018-04-14T03:52:36.611Z,18.20
2018-04-14T03:55:15.954Z,17.50
2018-04-14T03:57:44.925Z,16.97
2018-04-14T04:00:13.925Z,18.60
2018-04-14T04:02:44.876Z,18.77
2018-04-14T04:05:13.606Z,17.20
2018-04-14T04:07:42.860Z,18.20
2018-04-14T04:10:14.103Z,17.70
2018-04-14T04:12:42.824Z,18.20
2018-04-14T04:15:12.066Z,18.17
2018-04-14T04:17:41.069Z,17.60
2018-04-14T04:20:21.338Z,18.17
2018-04-14T04:25:04.405Z,19.10
2018-04-14T04:27:35.316Z,17.57
2018-04-14T04:30:07.970Z,18.10
2018-04-14T04:32:36.813Z,18.03
2018-04-14T04:35:05.607Z,17.77
2018-04-14T04:37:34.649Z,17.40
2018-04-14T04:40:11.464Z,18.47
2018-04-14T04:42:40.267Z,18.27
2018-04-14T04:45:14.917Z,18.23
2018-04-14T04:47:44.017Z,17.27
2018-04-14T04:50:13.144Z,16.80
2018-04-14T04:52:46.515Z,16.87
2018-04-14T04:55:15.276Z,17.33
2018-04-14T04:57:43.993Z,16.63
2018-04-14T05:00:18.041Z,16.90
2018-04-14T05:02:51.007Z,16.83
2018-04-14T05:05:19.646Z,17.37
2018-04-14T05:07:51.427Z,16.50
2018-04-14T05:10:19.979Z,17.40
2018-04-14T05:12:53.603Z,16.67
2018-04-14T05:15:22.659Z,16.27
2018-04-14T05:17:51.430Z,16.40
2018-04-14T05:20:19.991Z,16.20
2018-04-14T05:22:48.987Z,16.13
2018-04-14T05:25:17.651Z,15.57
2018-04-14T05:27:46.499Z,15.97
2018-04-14T05:30:16.154Z,15.13
2018-04-14T05:32:45.569Z,14.33
2018-04-14T05:35:19.278Z,15.57
2018-04-14T05:37:56.100Z,15.40
2018-04-14T05:40:25.018Z,14.43
2018-04-14T05:42:55.238Z,13.90
2018-04-14T05:45:23.902Z,14.93
2018-04-14T05:47:54.176Z,14.77
2018-04-14T05:50:22.795Z,13.50
2018-04-14T05:52:51.771Z,15.53
2018-04-14T05:55:20.603Z,13.50
2018-04-14T05:57:49.975Z,12.93
2018-04-14T06:00:18.991Z,13.77
2018-04-14T06:02:53.280Z,12.80
2018-04-14T06:05:21.971Z,13.17
2018-04-14T06:07:59.461Z,13.40
2018-04-14T06:10:28.438Z,13.33
2018-04-14T06:13:01.705Z,13.23
2018-04-14T06:15:31.224Z,12.03
2018-04-14T06:17:59.753Z,13.80
2018-04-14T06:20:28.340Z,13.27
2018-04-14T06:22:57.704Z,12.40
2018-04-14T06:25:26.576Z,15.33
2018-04-14T06:27:55.134Z,13.57
2018-04-14T06:30:24.323Z,12.70
2018-04-14T06:32:55.562Z,11.97
2018-04-14T06:35:24.111Z,12.30
2018-04-14T06:37:53.676Z,12.77
2018-04-14T06:40:22.203Z,12.17
2018-04-14T06:42:51.873Z,12.03
2018-04-14T06:45:20.887Z,11.30
2018-04-14T06:47:55.083Z,11.27
2018-04-14T06:50:24.470Z,11.20
2018-04-14T06:52:57.246Z,10.20
2018-04-14T06:55:25.839Z,22.30
2018-04-14T06:57:54.384Z,14.40
2018-04-14T07:00:23.202Z,12.27
2018-04-14T07:02:57.968Z,10.90
2018-04-14T07:05:26.552Z,10.60
2018-04-14T07:08:03.958Z,10.70
2018-04-14T07:10:32.966Z,11.50
2018-04-14T07:13:08.269Z,10.50
2018-04-14T07:15:43.024Z,10.30
2018-04-14T07:18:12.263Z,9.60
2018-04-14T07:20:41.642Z,9.60
2018-04-14T07:23:10.347Z,9.63
2018-04-14T07:25:39.686Z,9.23
2018-04-14T07:28:12.089Z,9.00
2018-04-14T07:30:42.848Z,9.37
2018-04-14T07:33:11.689Z,8.87
2018-04-14T07:35:40.450Z,8.20
2018-04-14T07:38:08.988Z,9.20
2018-04-14T07:40:38.408Z,8.60
2018-04-14T07:43:10.871Z,9.30
2018-04-14T07:45:46.701Z,8.10
2018-04-14T07:48:16.035Z,8.60
2018-04-14T07:50:45.735Z,9.10
2018-04-14T07:53:17.495Z,8.40
2018-04-14T07:55:48.096Z,8.30
2018-04-14T07:58:20.680Z,8.73
2018-04-14T08:00:50.179Z,8.23
2018-04-14T08:03:18.795Z,8.30
2018-04-14T08:05:50.286Z,7.67
2018-04-14T08:08:21.123Z,7.53
2018-04-14T08:10:51.181Z,7.90
2018-04-14T08:13:22.711Z,7.50
2018-04-14T08:16:04.137Z,6.93
2018-04-14T08:18:32.706Z,7.20
2018-04-14T08:21:03.462Z,6.97
2018-04-14T08:23:32.551Z,6.50
2018-04-14T08:29:42.762Z,6.00
2018-04-14T08:32:11.476Z,6.70
2018-04-14T08:34:41.471Z,9.63
2018-04-14T08:37:10.152Z,7.80
2018-04-14T08:39:39.856Z,6.63
2018-04-14T08:42:11.030Z,5.70
2018-04-14T08:44:40.642Z,5.90
2018-04-14T08:47:09.227Z,6.17
2018-04-14T08:49:38.368Z,5.40
2018-04-14T08:52:12.695Z,5.70
2018-04-14T08:54:41.767Z,5.47
2018-04-14T08:57:16.206Z,5.20
2018-04-14T08:59:44.955Z,5.90
2018-04-14T09:02:14.755Z,5.30
2018-04-14T09:04:43.767Z,4.33
2018-04-14T09:07:12.267Z,5.60
2018-04-14T09:09:41.464Z,5.33
2018-04-14T09:12:10.417Z,5.20
2018-04-14T09:14:41.809Z,4.70
2018-04-14T09:17:10.408Z,5.10
2018-04-14T09:19:39.443Z,3.83
2018-04-14T09:22:08.311Z,4.40
2018-04-14T09:24:36.902Z,4.50
2018-04-14T09:27:06.659Z,4.70
2018-04-14T09:29:35.225Z,4.17
2018-04-14T09:32:06.046Z,4.63
2018-04-14T09:34:35.588Z,3.90
2018-04-14T09:37:05.205Z,4.10
2018-04-14T09:39:33.745Z,3.80
2018-04-14T09:42:04.993Z,3.90
2018-04-14T09:44:33.572Z,3.57
2018-04-14T09:47:03.120Z,3.47
2018-04-14T09:49:37.517Z,3.50
2018-04-14T09:52:06.112Z,3.47
2018-04-14T09:54:34.682Z,3.60
2018-04-14T09:57:04.428Z,4.00
2018-04-14T09:59:33.032Z,2.90
2018-04-14T10:02:10.273Z,4.00
2018-04-14T10:04:42.558Z,4.00
2018-04-14T10:07:11.402Z,3.13
2018-04-14T10:09:39.966Z,2.40
2018-04-14T10:12:09.980Z,2.80
2018-04-14T10:14:39.438Z,2.60
2018-04-14T10:17:07.961Z,2.10
2018-04-14T10:19:39.906Z,2.37
2018-04-14T10:22:08.494Z,2.77
2018-04-14T10:24:37.041Z,1.70
2018-04-14T10:27:06.225Z,1.90
2018-04-14T10:29:34.763Z,1.47
2018-04-14T10:32:05.898Z,2.20
2018-04-14T10:34:35.834Z,2.20
2018-04-14T10:37:04.438Z,2.07
2018-04-14T10:39:33.002Z,4.30
2018-04-14T10:42:04.218Z,5.50
2018-04-14T10:44:32.800Z,2.10
2018-04-14T10:47:01.489Z,3.93
2018-04-14T10:49:31.367Z,2.20
2018-04-14T10:52:00.388Z,2.43
2018-04-14T10:54:29.002Z,1.80
2018-04-14T10:56:59.070Z,2.13
2018-04-14T10:59:29.662Z,1.50
2018-04-14T11:01:58.236Z,1.30
2018-04-14T11:04:27.083Z,1.80
2018-04-14T11:06:56.426Z,1.40
2018-04-14T11:09:25.069Z,1.57
2018-04-14T11:11:55.751Z,1.70
2018-04-14T11:14:24.310Z,1.40
2018-04-14T11:16:54.139Z,2.03
2018-04-14T11:19:23.056Z,1.83
2018-04-14T11:21:53.378Z,1.70
2018-04-14T11:24:21.942Z,1.90
2018-04-14T11:26:51.320Z,1.80
2018-04-14T11:29:19.817Z,1.47
2018-04-14T11:31:49.055Z,1.87
2018-04-14T11:34:17.909Z,1.70
2018-04-14T11:36:46.515Z,1.40
2018-04-14T11:39:15.012Z,1.30
2018-04-14T11:41:43.882Z,1.30
2018-04-14T11:44:12.459Z,1.13
2018-04-14T11:46:40.990Z,1.30
2018-04-14T11:49:10.143Z,1.53
2018-04-14T11:51:38.712Z,1.23
2018-04-14T11:54:07.348Z,1.50
2018-04-14T11:56:41.843Z,1.53
2018-04-14T11:59:10.703Z,1.60
2018-04-14T12:01:40.923Z,1.20
2018-04-14T12:04:10.451Z,0.90
2018-04-14T12:06:39.314Z,1.20
2018-04-14T12:09:10.299Z,1.23
2018-04-14T12:11:39.323Z,1.27
2018-04-14T12:14:09.237Z,1.60
2018-04-14T12:16:37.805Z,1.73
2018-04-14T12:19:06.944Z,2.13
2018-04-14T12:21:35.483Z,1.60
2018-04-14T12:24:06.242Z,1.00
2018-04-14T12:26:35.258Z,1.30
2018-04-14T12:29:08.137Z,1.10
2018-04-14T12:31:36.728Z,1.17
2018-04-14T12:34:08.079Z,1.10
2018-04-14T12:36:36.615Z,1.13
2018-04-14T12:39:06.916Z,0.80
2018-04-14T12:41:35.849Z,1.07
2018-04-14T12:44:09.916Z,1.63
2018-04-14T12:46:38.408Z,1.00
2018-04-14T12:49:08.356Z,2.00
2018-04-14T12:51:36.910Z,0.87
2018-04-14T12:54:06.959Z,1.60
2018-04-14T12:56:35.883Z,0.70
2018-04-14T12:59:04.694Z,0.83
2018-04-14T13:01:33.207Z,1.17
2018-04-14T13:04:03.308Z,1.10
2018-04-14T13:06:31.915Z,1.00
2018-04-14T13:09:00.583Z,0.73
2018-04-14T13:11:29.567Z,0.90
2018-04-14T13:14:00.094Z,1.20
2018-04-14T13:16:36.046Z,1.63
2018-04-14T13:19:05.434Z,1.50
2018-04-14T13:21:33.943Z,0.97
2018-04-14T13:24:03.690Z,0.70
2018-04-14T13:26:32.252Z,0.93
2018-04-14T13:29:01.528Z,0.97
2018-04-14T13:31:35.871Z,1.27
2018-04-14T13:34:06.845Z,1.37
2018-04-14T13:36:35.634Z,1.00
2018-04-14T13:39:04.544Z,0.97
2018-04-14T13:41:33.089Z,0.97
2018-04-14T13:44:04.931Z,0.70
2018-04-14T13:46:38.382Z,0.73
2018-04-14T13:49:07.217Z,2.70
2018-04-14T13:51:40.692Z,1.00
2018-04-14T13:54:09.601Z,0.70
2018-04-14T13:56:38.152Z,0.60
2018-04-14T13:59:07.106Z,1.47
2018-04-14T14:01:35.688Z,1.07
2018-04-14T14:04:06.560Z,1.83
2018-04-14T14:06:36.131Z,0.80
2018-04-14T14:09:11.554Z,0.70
2018-04-14T14:11:40.186Z,0.80
2018-04-14T14:14:08.881Z,1.07
2018-04-14T14:16:37.516Z,0.90
2018-04-14T14:19:06.414Z,0.93
2018-04-14T14:21:38.165Z,0.90
2018-04-14T14:24:06.733Z,0.80
2018-04-14T14:26:37.648Z,0.80
2018-04-14T14:29:06.472Z,0.67
2018-04-14T14:31:35.063Z,0.60
2018-04-14T14:34:06.257Z,1.13
2018-04-14T14:36:34.800Z,1.10
2018-04-14T14:39:06.253Z,1.00
2018-04-14T14:41:34.841Z,0.90
2018-04-14T14:44:08.592Z,0.70
2018-04-14T14:46:37.171Z,1.10
2018-04-14T14:49:05.734Z,0.90
2018-04-14T14:51:35.124Z,0.80
2018-04-14T14:54:05.551Z,0.60
2018-04-14T14:56:34.140Z,2.30
2018-04-14T14:59:08.800Z,1.00
2018-04-14T15:01:39.740Z,1.20
2018-04-14T15:04:08.330Z,0.60
2018-04-14T15:06:37.348Z,1.43
2018-04-14T15:09:06.851Z,0.87
2018-04-14T15:11:35.411Z,1.03
2018-04-14T15:14:05.179Z,0.90
2018-04-14T15:16:37.855Z,0.90
2018-04-14T15:19:06.870Z,1.03
2018-04-14T15:21:35.396Z,1.07
2018-04-14T15:24:06.375Z,0.80
2018-04-14T15:26:37.677Z,1.47
2018-04-14T15:29:06.199Z,0.87
2018-04-14T15:31:34.747Z,0.63
2018-04-14T15:34:06.443Z,0.93
2018-04-14T15:36:34.999Z,0.97
2018-04-14T15:39:04.775Z,3.50
2018-04-14T15:41:33.702Z,1.03
2018-04-14T15:44:04.938Z,1.00
2018-04-14T15:46:33.643Z,1.00
2018-04-14T15:49:04.627Z,1.00
2018-04-14T15:51:33.165Z,0.87
2018-04-14T15:54:02.711Z,1.10
2018-04-14T15:56:31.609Z,0.70
2018-04-14T15:59:00.288Z,0.80
2018-04-14T16:01:28.802Z,0.67
2018-04-14T16:04:00.091Z,0.97
2018-04-14T16:06:28.602Z,0.90
2018-04-14T16:08:57.109Z,1.40
2018-04-14T16:11:26.240Z,1.10
2018-04-14T16:13:54.787Z,1.13
2018-04-14T16:16:23.370Z,0.80
2018-04-14T16:18:52.574Z,0.70
2018-04-14T16:21:27.920Z,0.60
2018-04-14T16:23:56.466Z,0.70
2018-04-14T16:26:25.015Z,1.57
2018-04-14T16:28:55.096Z,1.13
2018-04-14T16:31:25.034Z,4.43
2018-04-14T16:33:58.519Z,0.97
2018-04-14T16:36:27.091Z,1.03
2018-04-14T16:38:55.988Z,1.00
2018-04-14T16:41:24.553Z,1.07
2018-04-14T16:43:53.059Z,0.70
2018-04-14T16:46:22.294Z,0.90
2018-04-14T16:48:58.819Z,0.97
2018-04-14T16:51:27.421Z,1.10
2018-04-14T16:53:55.910Z,0.90
2018-04-14T16:56:24.459Z,0.93
2018-04-14T16:58:54.591Z,1.50
2018-04-14T17:01:23.160Z,1.10
2018-04-14T17:03:51.733Z,0.60
2018-04-14T17:06:25.440Z,0.73
2018-04-14T17:08:54.154Z,0.70
2018-04-14T17:11:23.123Z,0.90
2018-04-14T17:13:52.430Z,0.90
2018-04-14T17:16:21.287Z,0.90
2018-04-14T17:18:49.824Z,0.80
2018-04-14T17:21:23.596Z,0.70
2018-04-14T17:23:52.250Z,0.90
2018-04-14T17:26:21.784Z,0.90
2018-04-14T17:28:51.169Z,0.87
2018-04-14T17:31:19.755Z,0.80
2018-04-14T17:33:48.566Z,0.93
2018-04-14T17:36:17.654Z,0.70
2018-04-14T17:38:46.290Z,0.77
2018-04-14T17:41:20.993Z,3.00
2018-04-14T17:43:50.147Z,1.83
2018-04-14T17:46:18.787Z,1.47
2018-04-14T17:48:47.671Z,1.40
2018-04-14T17:51:20.833Z,1.10
2018-04-14T17:53:50.971Z,1.20
2018-04-14T17:56:19.604Z,1.27
2018-04-14T17:58:48.778Z,1.00
2018-04-14T18:01:17.362Z,1.30
2018-04-14T18:03:45.937Z,1.37
2018-04-14T18:06:20.933Z,1.40
2018-04-14T18:08:49.443Z,1.60
2018-04-14T18:11:17.987Z,6.20
2018-04-14T18:13:47.189Z,11.10
2018-04-14T18:16:16.353Z,12.03
2018-04-14T18:18:45.036Z,19.07
2018-04-14T18:21:14.281Z,23.00
2018-04-14T18:23:48.242Z,25.63
2018-04-14T18:26:16.828Z,27.03
2018-04-14T18:28:48.690Z,28.17
2018-04-14T18:31:17.226Z,30.87
2018-04-14T18:33:53.219Z,32.10
2018-04-14T18:36:21.749Z,35.00
2018-04-14T18:38:51.679Z,35.97
2018-04-14T18:41:20.725Z,34.50
2018-04-14T18:43:49.228Z,35.27
2018-04-14T18:46:17.742Z,36.03
2018-04-14T18:48:46.455Z,37.17
2018-04-14T18:51:15.304Z,37.30
2018-04-14T18:53:47.410Z,35.50
2018-04-14T18:56:17.057Z,33.90
2018-04-14T18:58:46.543Z,32.37
2018-04-14T19:01:15.110Z,30.53
2018-04-14T19:03:43.706Z,54.30
2018-04-14T19:06:12.255Z,32.77
2018-04-14T19:08:41.512Z,29.37
2018-04-14T19:11:13.633Z,28.97
2018-04-14T19:13:42.160Z,27.97
2018-04-14T19:16:13.501Z,26.60
2018-04-14T19:18:42.045Z,19.10
2018-04-14T19:21:10.585Z,19.57
2018-04-14T19:23:39.495Z,18.33
2018-04-14T19:26:08.220Z,16.47
2018-04-14T19:31:20.548Z,10.93
2018-04-14T19:34:00.067Z,9.90
2018-04-14T19:36:28.702Z,11.80
2018-04-14T19:38:59.244Z,8.70
2018-04-14T19:41:27.820Z,6.70
2018-04-14T19:43:58.799Z,6.07
2018-04-14T19:46:27.639Z,5.57
2018-04-14T19:48:56.448Z,11.00
2018-04-14T19:51:25.596Z,12.87
2018-04-14T19:53:54.297Z,16.10
2018-04-14T19:56:22.871Z,13.40
2018-04-14T19:58:58.434Z,11.77
2018-04-14T20:01:27.054Z,9.00
2018-04-14T20:03:59.635Z,7.50
2018-04-14T20:06:28.745Z,7.23
2018-04-14T20:08:57.257Z,7.03
2018-04-14T20:11:25.846Z,5.90
2018-04-14T20:13:55.159Z,6.27
2018-04-14T20:16:23.714Z,6.40
2018-04-14T20:18:52.476Z,6.10
2018-04-14T20:21:22.165Z,6.50
2018-04-14T20:23:52.467Z,5.17
2018-04-14T20:26:21.177Z,11.43
2018-04-14T20:28:51.518Z,7.03
2018-04-14T20:31:20.213Z,6.47
2018-04-14T20:33:48.906Z,5.80
2018-04-14T20:36:17.790Z,5.23
2018-04-14T20:38:46.953Z,5.50
2018-04-14T20:41:16.213Z,5.53
2018-04-14T20:43:45.428Z,4.90
2018-04-14T20:46:14.172Z,6.57
2018-04-14T20:48:43.034Z,6.97
2018-04-14T20:51:11.973Z,6.83
2018-04-14T20:53:40.795Z,7.87
2018-04-14T20:58:38.463Z,6.00
2018-04-14T21:01:08.346Z,7.17
2018-04-14T21:03:36.868Z,7.13
2018-04-14T21:06:06.115Z,7.83
2018-04-14T21:08:39.626Z,7.60
2018-04-14T21:11:08.175Z,8.13
2018-04-14T21:13:37.088Z,7.13
2018-04-14T21:16:05.597Z,7.03
2018-04-14T21:18:37.013Z,9.03
2018-04-14T21:21:06.923Z,8.03
2018-04-14T21:23:35.491Z,8.30
2018-04-14T21:26:08.204Z,7.93
2018-04-14T21:28:37.059Z,7.50
2018-04-14T21:31:06.577Z,7.23
2018-04-14T21:33:35.147Z,7.20
2018-04-14T21:36:05.077Z,7.13
2018-04-14T21:38:33.625Z,7.57
2018-04-14T21:41:08.578Z,7.50
2018-04-14T21:46:12.431Z,6.30
2018-04-14T21:48:47.094Z,7.63
2018-04-14T21:51:15.674Z,8.37
2018-04-14T21:53:44.221Z,7.93
2018-04-14T21:56:13.274Z,6.83
2018-04-14T21:58:48.982Z,7.60
2018-04-14T22:01:17.559Z,7.87
2018-04-14T22:03:49.528Z,8.00
2018-04-14T22:06:18.378Z,7.40
2018-04-14T22:08:47.028Z,7.23
2018-04-14T22:11:15.900Z,7.00
2018-04-14T22:13:51.396Z,7.90
2018-04-14T22:16:20.116Z,7.40
2018-04-14T22:18:53.250Z,8.00
2018-04-14T22:21:21.779Z,7.50
2018-04-14T22:23:57.328Z,7.20
2018-04-14T22:26:25.877Z,7.73
2018-04-14T22:28:54.428Z,7.40
2018-04-14T22:31:22.975Z,8.40
2018-04-14T22:33:55.278Z,7.57
2018-04-14T22:36:23.792Z,7.37
2018-04-14T22:38:53.603Z,7.83
2018-04-14T22:41:22.135Z,9.40
2018-04-14T22:43:58.760Z,10.10
2018-04-14T22:46:27.772Z,9.50
2018-04-14T22:48:56.376Z,8.70
2018-04-14T22:51:24.941Z,10.43
2018-04-14T22:53:53.950Z,6.90
2018-04-14T22:56:27.206Z,6.67
2018-04-14T22:58:56.242Z,6.50
2018-04-14T23:01:34.564Z,7.03
2018-04-14T23:04:04.628Z,7.37
2018-04-14T23:06:37.620Z,7.60
2018-04-14T23:09:07.460Z,8.70
2018-04-14T23:11:38.952Z,6.33
2018-04-14T23:14:09.964Z,7.20
2018-04-14T23:16:38.624Z,20.93
2018-04-14T23:19:07.153Z,7.63
2018-04-14T23:21:44.095Z,7.97
2018-04-14T23:24:12.740Z,7.87
2018-04-14T23:26:41.476Z,7.30
2018-04-14T23:29:12.761Z,6.80
2018-04-14T23:31:41.306Z,6.33
2018-04-14T23:34:09.895Z,7.00
2018-04-14T23:36:39.175Z,5.77
2018-04-14T23:39:10.927Z,6.10
2018-04-14T23:41:48.716Z,6.60
2018-04-14T23:44:17.422Z,5.40
2018-04-14T23:46:48.424Z,5.60
2018-04-14T23:49:17.322Z,5.47
2018-04-14T23:51:45.954Z,5.30
2018-04-14T23:54:14.529Z,5.77
2018-04-14T23:56:43.407Z,5.90
2018-04-14T23:59:15.534Z,5.20
